sensor_id;sensor_type;location;lat;lon;timestamp;pressure;altitude;pressure_sealevel;temperature;humidity
60019;BME280;45870;42.528;26.740;2023-03-31T00:00:50;99872.41;;;11.92;38.35
60019;BME280;45870;42.528;26.740;2023-03-31T00:03:15;99872.19;;;12.50;38.12
60019;BME280;45870;42.528;26.740;2023-03-31T00:05:48;99878.34;;;10.90;40.60
60019;BME280;45870;42.528;26.740;2023-03-31T00:08:17;99873.06;;;10.24;43.28
60019;BME280;45870;42.528;26.740;2023-03-31T00:10:45;99877.81;;;11.34;40.95
60019;BME280;45870;42.528;26.740;2023-03-31T00:13:11;99878.66;;;12.21;37.97
60019;BME280;45870;42.528;26.740;2023-03-31T00:15:37;99870.44;;;12.73;37.96
60019;BME280;45870;42.528;26.740;2023-03-31T00:18:03;99885.75;;;12.11;36.99
60019;BME280;45870;42.528;26.740;2023-03-31T00:20:29;99862.09;;;12.91;35.65
60019;BME280;45870;42.528;26.740;2023-03-31T00:22:58;99855.50;;;13.15;35.02
60019;BME280;45870;42.528;26.740;2023-03-31T00:25:26;99854.25;;;13.23;35.46
60019;BME280;45870;42.528;26.740;2023-03-31T00:27:52;99842.47;;;13.00;35.86
60019;BME280;45870;42.528;26.740;2023-03-31T00:30:18;99844.84;;;12.97;35.82
60019;BME280;45870;42.528;26.740;2023-03-31T00:32:43;99835.09;;;13.13;35.37
60019;BME280;45870;42.528;26.740;2023-03-31T00:35:10;99834.06;;;13.52;35.36
60019;BME280;45870;42.528;26.740;2023-03-31T00:37:36;99842.41;;;13.45;35.21
60019;BME280;45870;42.528;26.740;2023-03-31T00:40:02;99838.22;;;13.21;35.87
60019;BME280;45870;42.528;26.740;2023-03-31T00:42:41;99825.91;;;13.30;35.69
60019;BME280;45870;42.528;26.740;2023-03-31T00:47:42;99841.06;;;11.96;37.57
60019;BME280;45870;42.528;26.740;2023-03-31T00:50:21;99826.72;;;12.97;35.88
60019;BME280;45870;42.528;26.740;2023-03-31T00:53:01;99827.28;;;12.99;36.01
60019;BME280;45870;42.528;26.740;2023-03-31T00:55:35;99825.19;;;13.57;34.77
60019;BME280;45870;42.528;26.740;2023-03-31T00:58:04;99816.25;;;13.78;34.44
60019;BME280;45870;42.528;26.740;2023-03-31T01:00:31;99804.22;;;13.14;35.55
60019;BME280;45870;42.528;26.740;2023-03-31T01:02:59;99781.31;;;12.55;36.97
60019;BME280;45870;42.528;26.740;2023-03-31T01:05:45;99788.13;;;13.40;36.05
60019;BME280;45870;42.528;26.740;2023-03-31T01:08:13;99797.19;;;13.51;36.07
60019;BME280;45870;42.528;26.740;2023-03-31T01:10:44;99800.69;;;13.68;35.16
60019;BME280;45870;42.528;26.740;2023-03-31T01:13:12;99801.66;;;13.62;35.32
60019;BME280;45870;42.528;26.740;2023-03-31T01:15:39;99801.63;;;13.19;36.81
60019;BME280;45870;42.528;26.740;2023-03-31T01:18:07;99784.09;;;12.93;36.72
60019;BME280;45870;42.528;26.740;2023-03-31T01:26:55;99799.19;;;10.78;41.44
60019;BME280;45870;42.528;26.740;2023-03-31T01:35:47;99786.78;;;8.72;46.76
60019;BME280;45870;42.528;26.740;2023-03-31T01:44:03;99780.03;;;12.00;38.71
60019;BME280;45870;42.528;26.740;2023-03-31T01:46:57;99771.81;;;12.24;37.97
60019;BME280;45870;42.528;26.740;2023-03-31T01:57:48;99763.69;;;11.44;39.16
60019;BME280;45870;42.528;26.740;2023-03-31T02:00:20;99752.66;;;11.34;38.63
60019;BME280;45870;42.528;26.740;2023-03-31T02:03:05;99753.06;;;11.66;38.54
60019;BME280;45870;42.528;26.740;2023-03-31T02:05:40;99753.28;;;11.87;38.96
60019;BME280;45870;42.528;26.740;2023-03-31T02:08:18;99754.03;;;11.60;39.22
60019;BME280;45870;42.528;26.740;2023-03-31T02:10:47;99739.19;;;11.85;38.94
60019;BME280;45870;42.528;26.740;2023-03-31T02:13:14;99743.03;;;11.38;40.71
60019;BME280;45870;42.528;26.740;2023-03-31T02:15:45;99733.94;;;12.24;38.53
60019;BME280;45870;42.528;26.740;2023-03-31T02:18:15;99725.91;;;12.45;36.39
60019;BME280;45870;42.528;26.740;2023-03-31T02:20:46;99733.44;;;12.10;38.74
60019;BME280;45870;42.528;26.740;2023-03-31T02:23:14;99731.66;;;12.82;37.29
60019;BME280;45870;42.528;26.740;2023-03-31T02:25:47;99736.94;;;12.56;37.53
60019;BME280;45870;42.528;26.740;2023-03-31T02:28:20;99710.63;;;12.06;38.15
60019;BME280;45870;42.528;26.740;2023-03-31T02:33:30;99715.06;;;12.45;37.20
60019;BME280;45870;42.528;26.740;2023-03-31T02:35:57;99703.03;;;12.36;37.84
60019;BME280;45870;42.528;26.740;2023-03-31T02:38:23;99707.38;;;12.54;37.31
60019;BME280;45870;42.528;26.740;2023-03-31T02:40:50;99713.78;;;12.65;37.93
60019;BME280;45870;42.528;26.740;2023-03-31T02:43:16;99715.25;;;12.72;37.73
60019;BME280;45870;42.528;26.740;2023-03-31T02:45:46;99715.81;;;12.58;38.14
60019;BME280;45870;42.528;26.740;2023-03-31T02:48:34;99742.75;;;11.51;39.62
60019;BME280;45870;42.528;26.740;2023-03-31T02:54:22;99712.63;;;11.31;40.13
60019;BME280;45870;42.528;26.740;2023-03-31T02:57:05;99712.13;;;11.34;39.68
60019;BME280;45870;42.528;26.740;2023-03-31T03:00:04;99704.19;;;12.24;37.79
60019;BME280;45870;42.528;26.740;2023-03-31T03:05:35;99703.84;;;11.12;41.30
60019;BME280;45870;42.528;26.740;2023-03-31T03:11:13;99702.56;;;11.15;40.72
60019;BME280;45870;42.528;26.740;2023-03-31T03:13:51;99682.94;;;11.59;39.63
60019;BME280;45870;42.528;26.740;2023-03-31T03:16:28;99686.13;;;11.56;39.82
60019;BME280;45870;42.528;26.740;2023-03-31T03:18:57;99685.56;;;9.43;42.90
60019;BME280;45870;42.528;26.740;2023-03-31T03:21:24;99682.84;;;10.44;41.83
60019;BME280;45870;42.528;26.740;2023-03-31T03:23:50;99679.44;;;10.84;40.33
60019;BME280;45870;42.528;26.740;2023-03-31T03:26:18;99675.59;;;10.68;41.40
60019;BME280;45870;42.528;26.740;2023-03-31T03:28:49;99672.66;;;11.73;39.34
60019;BME280;45870;42.528;26.740;2023-03-31T03:31:15;99676.72;;;11.87;38.99
60019;BME280;45870;42.528;26.740;2023-03-31T03:33:42;99675.47;;;12.23;37.13
60019;BME280;45870;42.528;26.740;2023-03-31T03:36:08;99680.88;;;12.39;36.54
60019;BME280;45870;42.528;26.740;2023-03-31T03:38:33;99684.91;;;12.37;36.71
60019;BME280;45870;42.528;26.740;2023-03-31T03:40:59;99678.97;;;12.57;36.37
60019;BME280;45870;42.528;26.740;2023-03-31T03:43:27;99678.75;;;12.41;37.81
60019;BME280;45870;42.528;26.740;2023-03-31T03:45:53;99682.53;;;12.24;36.91
60019;BME280;45870;42.528;26.740;2023-03-31T03:48:19;99688.25;;;12.44;36.87
60019;BME280;45870;42.528;26.740;2023-03-31T03:50:45;99682.69;;;12.17;38.15
60019;BME280;45870;42.528;26.740;2023-03-31T03:53:12;99691.38;;;12.69;37.24
60019;BME280;45870;42.528;26.740;2023-03-31T03:55:38;99687.66;;;12.75;36.85
60019;BME280;45870;42.528;26.740;2023-03-31T03:58:04;99685.34;;;13.00;36.38
60019;BME280;45870;42.528;26.740;2023-03-31T04:00:29;99684.16;;;11.80;38.49
60019;BME280;45870;42.528;26.740;2023-03-31T04:02:56;99685.47;;;11.66;39.95
60019;BME280;45870;42.528;26.740;2023-03-31T04:05:21;99675.63;;;12.49;37.39
60019;BME280;45870;42.528;26.740;2023-03-31T04:07:47;99678.88;;;13.23;36.65
60019;BME280;45870;42.528;26.740;2023-03-31T04:10:13;99682.56;;;13.12;36.60
60019;BME280;45870;42.528;26.740;2023-03-31T04:12:39;99677.59;;;13.09;36.90
60019;BME280;45870;42.528;26.740;2023-03-31T04:15:05;99685.63;;;13.21;37.52
60019;BME280;45870;42.528;26.740;2023-03-31T04:17:31;99685.47;;;13.76;36.57
60019;BME280;45870;42.528;26.740;2023-03-31T04:20:04;99671.63;;;14.31;36.08
60019;BME280;45870;42.528;26.740;2023-03-31T04:22:31;99676.34;;;14.40;35.64
60019;BME280;45870;42.528;26.740;2023-03-31T04:25:02;99677.53;;;14.23;35.96
60019;BME280;45870;42.528;26.740;2023-03-31T04:27:28;99674.47;;;13.87;36.27
60019;BME280;45870;42.528;26.740;2023-03-31T04:29:55;99667.88;;;13.30;38.58
60019;BME280;45870;42.528;26.740;2023-03-31T04:32:22;99652.34;;;14.27;36.33
60019;BME280;45870;42.528;26.740;2023-03-31T04:34:48;99651.16;;;14.45;35.63
60019;BME280;45870;42.528;26.740;2023-03-31T04:37:29;99657.41;;;13.65;36.58
60019;BME280;45870;42.528;26.740;2023-03-31T04:40:02;99653.97;;;13.96;36.63
60019;BME280;45870;42.528;26.740;2023-03-31T04:42:32;99654.16;;;12.81;39.29
60019;BME280;45870;42.528;26.740;2023-03-31T04:44:58;99664.38;;;13.56;38.33
60019;BME280;45870;42.528;26.740;2023-03-31T04:47:23;99635.59;;;13.28;38.35
60019;BME280;45870;42.528;26.740;2023-03-31T04:49:49;99669.03;;;11.95;41.31
60019;BME280;45870;42.528;26.740;2023-03-31T04:52:15;99644.47;;;12.85;39.40
60019;BME280;45870;42.528;26.740;2023-03-31T04:54:41;99666.34;;;12.62;39.25
60019;BME280;45870;42.528;26.740;2023-03-31T04:57:06;99653.25;;;11.76;41.23
60019;BME280;45870;42.528;26.740;2023-03-31T04:59:32;99660.00;;;10.59;43.21
60019;BME280;45870;42.528;26.740;2023-03-31T05:01:58;99657.84;;;10.84;41.12
60019;BME280;45870;42.528;26.740;2023-03-31T05:04:23;99648.09;;;11.34;39.48
60019;BME280;45870;42.528;26.740;2023-03-31T05:06:49;99650.88;;;11.51;39.40
60019;BME280;45870;42.528;26.740;2023-03-31T05:09:15;99641.34;;;12.93;35.69
60019;BME280;45870;42.528;26.740;2023-03-31T05:11:41;99645.97;;;13.85;34.27
60019;BME280;45870;42.528;26.740;2023-03-31T05:14:06;99637.56;;;14.18;33.27
60019;BME280;45870;42.528;26.740;2023-03-31T05:16:32;99622.25;;;15.28;31.60
60019;BME280;45870;42.528;26.740;2023-03-31T05:18:58;99631.13;;;14.24;33.76
60019;BME280;45870;42.528;26.740;2023-03-31T05:21:23;99631.91;;;15.56;32.06
60019;BME280;45870;42.528;26.740;2023-03-31T05:23:51;99634.97;;;15.84;32.90
60019;BME280;45870;42.528;26.740;2023-03-31T05:26:17;99628.19;;;16.07;32.87
60019;BME280;45870;42.528;26.740;2023-03-31T05:28:43;99623.75;;;15.66;34.03
60019;BME280;45870;42.528;26.740;2023-03-31T05:31:10;99619.44;;;15.75;33.54
60019;BME280;45870;42.528;26.740;2023-03-31T05:33:38;99624.84;;;15.02;35.12
60019;BME280;45870;42.528;26.740;2023-03-31T05:36:08;99614.41;;;15.41;35.07
60019;BME280;45870;42.528;26.740;2023-03-31T05:38:34;99622.09;;;14.45;36.77
60019;BME280;45870;42.528;26.740;2023-03-31T05:41:00;99622.66;;;13.14;39.33
60019;BME280;45870;42.528;26.740;2023-03-31T05:43:26;99622.88;;;12.52;41.25
60019;BME280;45870;42.528;26.740;2023-03-31T05:45:52;99607.31;;;13.19;40.27
60019;BME280;45870;42.528;26.740;2023-03-31T05:48:17;99611.28;;;15.85;36.16
60019;BME280;45870;42.528;26.740;2023-03-31T05:50:43;99608.56;;;16.30;34.67
60019;BME280;45870;42.528;26.740;2023-03-31T05:53:09;99618.09;;;16.73;34.22
60019;BME280;45870;42.528;26.740;2023-03-31T05:55:35;99618.91;;;16.48;34.93
60019;BME280;45870;42.528;26.740;2023-03-31T05:58:01;99618.44;;;14.72;37.55
60019;BME280;45870;42.528;26.740;2023-03-31T06:00:26;99611.28;;;15.95;35.91
60019;BME280;45870;42.528;26.740;2023-03-31T06:02:52;99608.84;;;17.38;34.19
60019;BME280;45870;42.528;26.740;2023-03-31T06:05:18;99606.09;;;17.48;33.85
60019;BME280;45870;42.528;26.740;2023-03-31T06:07:43;99608.31;;;16.17;35.90
60019;BME280;45870;42.528;26.740;2023-03-31T06:10:09;99611.13;;;13.72;40.97
60019;BME280;45870;42.528;26.740;2023-03-31T06:12:35;99602.72;;;13.03;42.21
60019;BME280;45870;42.528;26.740;2023-03-31T06:15:02;99604.00;;;13.17;41.40
60019;BME280;45870;42.528;26.740;2023-03-31T06:17:28;99591.50;;;12.73;42.66
60019;BME280;45870;42.528;26.740;2023-03-31T06:19:53;99603.75;;;13.40;42.42
60019;BME280;45870;42.528;26.740;2023-03-31T06:22:20;99607.09;;;13.79;42.07
60019;BME280;45870;42.528;26.740;2023-03-31T06:24:45;99604.84;;;14.67;40.77
60019;BME280;45870;42.528;26.740;2023-03-31T06:27:11;99593.41;;;14.65;39.67
60019;BME280;45870;42.528;26.740;2023-03-31T06:29:37;99586.34;;;13.63;41.70
60019;BME280;45870;42.528;26.740;2023-03-31T06:32:02;99596.44;;;14.31;40.95
60019;BME280;45870;42.528;26.740;2023-03-31T06:34:29;99580.97;;;14.32;39.80
60019;BME280;45870;42.528;26.740;2023-03-31T06:36:55;99586.03;;;13.60;40.52
60019;BME280;45870;42.528;26.740;2023-03-31T06:39:21;99590.16;;;13.94;40.56
60019;BME280;45870;42.528;26.740;2023-03-31T06:41:47;99593.34;;;13.32;40.29
60019;BME280;45870;42.528;26.740;2023-03-31T06:44:12;99588.00;;;13.64;40.71
60019;BME280;45870;42.528;26.740;2023-03-31T06:46:41;99528.28;;;13.32;40.58
60019;BME280;45870;42.528;26.740;2023-03-31T06:49:07;99592.78;;;13.84;39.65
60019;BME280;45870;42.528;26.740;2023-03-31T06:51:33;99587.31;;;14.11;38.67
60019;BME280;45870;42.528;26.740;2023-03-31T06:53:59;99596.00;;;14.44;39.38
60019;BME280;45870;42.528;26.740;2023-03-31T06:56:24;99604.09;;;14.08;39.22
60019;BME280;45870;42.528;26.740;2023-03-31T06:58:51;99605.53;;;14.15;38.72
60019;BME280;45870;42.528;26.740;2023-03-31T07:01:17;99606.41;;;14.53;37.83
60019;BME280;45870;42.528;26.740;2023-03-31T07:03:42;99608.31;;;16.17;35.22
60019;BME280;45870;42.528;26.740;2023-03-31T07:06:08;99605.06;;;13.91;38.86
60019;BME280;45870;42.528;26.740;2023-03-31T07:08:34;99616.09;;;14.12;39.34
60019;BME280;45870;42.528;26.740;2023-03-31T07:11:01;99590.72;;;12.56;41.96
60019;BME280;45870;42.528;26.740;2023-03-31T07:13:27;99602.81;;;13.83;41.18
60019;BME280;45870;42.528;26.740;2023-03-31T07:15:53;99595.56;;;14.26;40.63
60019;BME280;45870;42.528;26.740;2023-03-31T07:18:19;99607.69;;;13.81;41.17
60019;BME280;45870;42.528;26.740;2023-03-31T07:20:49;99579.94;;;12.22;43.94
60019;BME280;45870;42.528;26.740;2023-03-31T07:23:16;99592.31;;;13.12;43.56
60019;BME280;45870;42.528;26.740;2023-03-31T07:25:43;99603.31;;;13.27;42.79
60019;BME280;45870;42.528;26.740;2023-03-31T07:28:09;99611.09;;;13.98;42.11
60019;BME280;45870;42.528;26.740;2023-03-31T07:30:36;99609.22;;;13.45;44.26
60019;BME280;45870;42.528;26.740;2023-03-31T07:33:04;99600.66;;;14.49;41.45
60019;BME280;45870;42.528;26.740;2023-03-31T07:35:30;99607.84;;;13.70;41.62
60019;BME280;45870;42.528;26.740;2023-03-31T07:37:57;99607.47;;;13.88;41.46
60019;BME280;45870;42.528;26.740;2023-03-31T07:40:25;99609.19;;;14.68;41.09
60019;BME280;45870;42.528;26.740;2023-03-31T07:42:52;99606.38;;;16.73;37.37
60019;BME280;45870;42.528;26.740;2023-03-31T07:45:19;99608.41;;;14.72;39.90
60019;BME280;45870;42.528;26.740;2023-03-31T07:47:45;99601.38;;;13.49;41.42
60019;BME280;45870;42.528;26.740;2023-03-31T07:50:13;99593.94;;;13.61;41.99
60019;BME280;45870;42.528;26.740;2023-03-31T07:52:39;99594.69;;;13.57;41.34
60019;BME280;45870;42.528;26.740;2023-03-31T07:55:06;99597.28;;;13.73;42.18
60019;BME280;45870;42.528;26.740;2023-03-31T07:57:33;99581.50;;;13.17;42.01
60019;BME280;45870;42.528;26.740;2023-03-31T07:59:59;99589.59;;;13.12;44.22
60019;BME280;45870;42.528;26.740;2023-03-31T08:02:25;99587.88;;;12.67;44.67
60019;BME280;45870;42.528;26.740;2023-03-31T08:04:50;99590.22;;;13.19;43.77
60019;BME280;45870;42.528;26.740;2023-03-31T08:07:16;99593.72;;;12.76;45.11
60019;BME280;45870;42.528;26.740;2023-03-31T08:09:43;99593.34;;;13.32;45.77
60019;BME280;45870;42.528;26.740;2023-03-31T08:12:10;99591.31;;;13.71;44.36
60019;BME280;45870;42.528;26.740;2023-03-31T08:14:37;99589.47;;;13.50;44.33
60019;BME280;45870;42.528;26.740;2023-03-31T08:17:03;99559.44;;;13.30;43.67
60019;BME280;45870;42.528;26.740;2023-03-31T08:19:29;99539.59;;;13.83;43.72
60019;BME280;45870;42.528;26.740;2023-03-31T08:21:57;99573.69;;;13.74;44.47
60019;BME280;45870;42.528;26.740;2023-03-31T08:24:23;99563.91;;;14.36;44.00
60019;BME280;45870;42.528;26.740;2023-03-31T08:26:49;99563.63;;;13.16;45.12
60019;BME280;45870;42.528;26.740;2023-03-31T08:29:14;99573.16;;;14.35;44.00
60019;BME280;45870;42.528;26.740;2023-03-31T08:31:40;99570.00;;;13.85;44.64
60019;BME280;45870;42.528;26.740;2023-03-31T08:34:06;99563.59;;;14.33;44.42
60019;BME280;45870;42.528;26.740;2023-03-31T08:36:32;99554.16;;;14.04;44.27
60019;BME280;45870;42.528;26.740;2023-03-31T08:38:58;99550.56;;;13.98;44.87
60019;BME280;45870;42.528;26.740;2023-03-31T08:47:19;99565.19;;;14.29;44.49
60019;BME280;45870;42.528;26.740;2023-03-31T08:49:58;99548.28;;;14.17;43.92
60019;BME280;45870;42.528;26.740;2023-03-31T08:52:30;99545.69;;;14.32;44.35
60019;BME280;45870;42.528;26.740;2023-03-31T08:55:01;99545.44;;;14.85;43.40
60019;BME280;45870;42.528;26.740;2023-03-31T08:57:42;99534.00;;;15.86;41.19
60019;BME280;45870;42.528;26.740;2023-03-31T09:00:16;99529.16;;;14.95;43.43
60019;BME280;45870;42.528;26.740;2023-03-31T09:02:50;99538.25;;;14.22;43.86
60019;BME280;45870;42.528;26.740;2023-03-31T09:05:39;99527.22;;;14.81;42.08
60019;BME280;45870;42.528;26.740;2023-03-31T09:08:32;99515.34;;;15.07;42.14
60019;BME280;45870;42.528;26.740;2023-03-31T09:14:00;99495.81;;;15.15;42.00
60019;BME280;45870;42.528;26.740;2023-03-31T09:16:48;99512.75;;;16.18;41.04
60019;BME280;45870;42.528;26.740;2023-03-31T09:19:41;99501.59;;;15.64;42.36
60019;BME280;45870;42.528;26.740;2023-03-31T09:22:16;99434.28;;;14.89;43.84
60019;BME280;45870;42.528;26.740;2023-03-31T09:24:51;99472.75;;;15.78;42.79
60019;BME280;45870;42.528;26.740;2023-03-31T09:27:20;99482.53;;;15.49;43.46
60019;BME280;45870;42.528;26.740;2023-03-31T09:29:55;99479.72;;;16.45;41.59
60019;BME280;45870;42.528;26.740;2023-03-31T09:32:30;99482.34;;;16.75;40.18
60019;BME280;45870;42.528;26.740;2023-03-31T09:35:10;99478.13;;;16.24;42.59
60019;BME280;45870;42.528;26.740;2023-03-31T09:37:37;99481.44;;;16.11;41.55
60019;BME280;45870;42.528;26.740;2023-03-31T09:40:04;99481.97;;;15.97;41.76
60019;BME280;45870;42.528;26.740;2023-03-31T09:42:33;99477.34;;;16.18;41.17
60019;BME280;45870;42.528;26.740;2023-03-31T09:45:00;99468.13;;;15.64;41.42
60019;BME280;45870;42.528;26.740;2023-03-31T09:47:38;99477.13;;;15.89;41.34
60019;BME280;45870;42.528;26.740;2023-03-31T09:50:08;99474.13;;;15.81;42.20
60019;BME280;45870;42.528;26.740;2023-03-31T09:52:38;99458.88;;;15.75;42.04
60019;BME280;45870;42.528;26.740;2023-03-31T09:55:20;99466.91;;;16.40;41.72
60019;BME280;45870;42.528;26.740;2023-03-31T09:57:47;99461.28;;;16.22;40.86
60019;BME280;45870;42.528;26.740;2023-03-31T10:00:14;99466.44;;;16.97;40.28
60019;BME280;45870;42.528;26.740;2023-03-31T10:02:51;99458.63;;;16.81;40.00
60019;BME280;45870;42.528;26.740;2023-03-31T10:05:31;99440.06;;;15.98;40.23
60019;BME280;45870;42.528;26.740;2023-03-31T10:08:28;99438.06;;;16.29;39.41
60019;BME280;45870;42.528;26.740;2023-03-31T10:13:35;99432.06;;;17.40;38.35
60019;BME280;45870;42.528;26.740;2023-03-31T10:16:06;99433.44;;;18.53;38.09
60019;BME280;45870;42.528;26.740;2023-03-31T10:18:38;99426.78;;;17.83;37.07
60019;BME280;45870;42.528;26.740;2023-03-31T10:21:15;99429.16;;;18.18;36.65
60019;BME280;45870;42.528;26.740;2023-03-31T10:23:46;99416.66;;;17.55;38.13
60019;BME280;45870;42.528;26.740;2023-03-31T10:26:17;99408.25;;;17.12;37.90
60019;BME280;45870;42.528;26.740;2023-03-31T10:28:43;99405.94;;;17.63;38.34
60019;BME280;45870;42.528;26.740;2023-03-31T10:31:10;99401.03;;;18.18;36.94
60019;BME280;45870;42.528;26.740;2023-03-31T10:33:43;99397.75;;;17.63;38.28
60019;BME280;45870;42.528;26.740;2023-03-31T10:36:25;99392.69;;;19.77;34.59
60019;BME280;45870;42.528;26.740;2023-03-31T10:38:52;99376.59;;;18.26;36.95
60019;BME280;45870;42.528;26.740;2023-03-31T10:41:24;99379.03;;;18.28;36.23
60019;BME280;45870;42.528;26.740;2023-03-31T10:43:59;99366.50;;;18.51;35.45
60019;BME280;45870;42.528;26.740;2023-03-31T10:46:51;99377.41;;;19.90;34.03
60019;BME280;45870;42.528;26.740;2023-03-31T10:51:53;99358.31;;;18.51;33.09
60019;BME280;45870;42.528;26.740;2023-03-31T10:54:19;99348.31;;;19.48;32.35
60019;BME280;45870;42.528;26.740;2023-03-31T10:56:47;99339.84;;;19.63;32.54
60019;BME280;45870;42.528;26.740;2023-03-31T11:07:53;99343.75;;;16.54;37.51
60019;BME280;45870;42.528;26.740;2023-03-31T11:13:18;99317.38;;;18.22;35.55
60019;BME280;45870;42.528;26.740;2023-03-31T11:19:10;99303.91;;;19.51;34.98
60019;BME280;45870;42.528;26.740;2023-03-31T11:21:51;99302.72;;;18.92;35.51
60019;BME280;45870;42.528;26.740;2023-03-31T11:43:36;99280.16;;;20.42;32.17
60019;BME280;45870;42.528;26.740;2023-03-31T11:49:00;99270.66;;;21.59;30.41
60019;BME280;45870;42.528;26.740;2023-03-31T11:51:29;99273.25;;;20.44;32.63
60019;BME280;45870;42.528;26.740;2023-03-31T11:53:57;99260.91;;;20.06;32.81
60019;BME280;45870;42.528;26.740;2023-03-31T11:56:35;99253.59;;;20.87;31.04
60019;BME280;45870;42.528;26.740;2023-03-31T11:59:03;99251.22;;;21.16;32.02
60019;BME280;45870;42.528;26.740;2023-03-31T12:06:32;99249.66;;;21.55;31.68
60019;BME280;45870;42.528;26.740;2023-03-31T12:09:16;99239.03;;;22.35;30.26
60019;BME280;45870;42.528;26.740;2023-03-31T12:12:03;99235.53;;;20.86;31.24
60019;BME280;45870;42.528;26.740;2023-03-31T12:14:50;99233.19;;;20.21;31.94
60019;BME280;45870;42.528;26.740;2023-03-31T12:17:22;99241.75;;;21.62;30.74
60019;BME280;45870;42.528;26.740;2023-03-31T12:20:03;99248.59;;;21.11;31.13
60019;BME280;45870;42.528;26.740;2023-03-31T12:22:43;99244.25;;;20.88;32.00
60019;BME280;45870;42.528;26.740;2023-03-31T12:25:13;99243.47;;;20.52;31.04
60019;BME280;45870;42.528;26.740;2023-03-31T12:27:41;99240.75;;;20.74;31.67
60019;BME280;45870;42.528;26.740;2023-03-31T12:30:32;99234.41;;;20.65;32.20
60019;BME280;45870;42.528;26.740;2023-03-31T12:53:37;99225.66;;;18.72;35.79
60019;BME280;45870;42.528;26.740;2023-03-31T12:56:06;99219.72;;;18.32;35.63
60019;BME280;45870;42.528;26.740;2023-03-31T12:58:37;99214.25;;;18.32;36.56
60019;BME280;45870;42.528;26.740;2023-03-31T13:11:39;99184.94;;;23.84;28.51
60019;BME280;45870;42.528;26.740;2023-03-31T13:14:29;99173.50;;;21.07;31.28
60019;BME280;45870;42.528;26.740;2023-03-31T13:17:34;99171.91;;;22.28;30.30
60019;BME280;45870;42.528;26.740;2023-03-31T13:20:24;99182.41;;;25.15;26.78
60019;BME280;45870;42.528;26.740;2023-03-31T13:23:00;99182.84;;;23.52;29.31
60019;BME280;45870;42.528;26.740;2023-03-31T13:30:44;99191.06;;;20.31;32.96
60019;BME280;45870;42.528;26.740;2023-03-31T13:39:03;99165.81;;;23.12;28.66
60019;BME280;45870;42.528;26.740;2023-03-31T13:44:59;99150.56;;;24.31;27.09
60019;BME280;45870;42.528;26.740;2023-03-31T13:55:25;99145.97;;;23.94;28.84
60019;BME280;45870;42.528;26.740;2023-03-31T13:58:21;99136.97;;;22.54;30.42
60019;BME280;45870;42.528;26.740;2023-03-31T14:06:43;99124.88;;;22.12;31.62
60019;BME280;45870;42.528;26.740;2023-03-31T14:09:32;99121.06;;;23.23;29.57
60019;BME280;45870;42.528;26.740;2023-03-31T14:11:59;99122.31;;;24.14;27.52
60019;BME280;45870;42.528;26.740;2023-03-31T14:14:25;99127.13;;;21.93;30.95
60019;BME280;45870;42.528;26.740;2023-03-31T14:16:55;99120.94;;;21.14;32.64
60019;BME280;45870;42.528;26.740;2023-03-31T14:19:39;99116.19;;;21.06;32.81
60019;BME280;45870;42.528;26.740;2023-03-31T14:22:40;99123.88;;;21.17;31.69
60019;BME280;45870;42.528;26.740;2023-03-31T14:25:13;99116.63;;;21.21;33.12
60019;BME280;45870;42.528;26.740;2023-03-31T14:28:19;99113.59;;;20.25;33.30
60019;BME280;45870;42.528;26.740;2023-03-31T14:39:05;99092.88;;;22.16;30.84
60019;BME280;45870;42.528;26.740;2023-03-31T14:41:33;99098.94;;;22.56;31.10
60019;BME280;45870;42.528;26.740;2023-03-31T14:44:06;99098.63;;;22.49;30.53
60019;BME280;45870;42.528;26.740;2023-03-31T14:46:36;99056.78;;;22.26;30.66
60019;BME280;45870;42.528;26.740;2023-03-31T14:49:27;99089.41;;;22.45;29.78
60019;BME280;45870;42.528;26.740;2023-03-31T14:51:57;99074.91;;;22.91;29.92
60019;BME280;45870;42.528;26.740;2023-03-31T14:54:23;99085.09;;;23.58;29.73
60019;BME280;45870;42.528;26.740;2023-03-31T14:56:52;99095.41;;;22.38;31.50
60019;BME280;45870;42.528;26.740;2023-03-31T14:59:28;99092.66;;;21.70;32.62
60019;BME280;45870;42.528;26.740;2023-03-31T15:01:57;99095.28;;;22.18;31.29
60019;BME280;45870;42.528;26.740;2023-03-31T15:04:25;99093.84;;;21.21;32.84
60019;BME280;45870;42.528;26.740;2023-03-31T15:06:53;99085.66;;;21.47;32.63
60019;BME280;45870;42.528;26.740;2023-03-31T15:09:29;99088.34;;;20.81;32.95
60019;BME280;45870;42.528;26.740;2023-03-31T15:12:00;99081.88;;;21.90;31.65
60019;BME280;45870;42.528;26.740;2023-03-31T15:14:35;99085.94;;;23.20;29.67
60019;BME280;45870;42.528;26.740;2023-03-31T15:17:04;99082.16;;;21.80;32.08
60019;BME280;45870;42.528;26.740;2023-03-31T15:19:34;99086.31;;;21.04;33.16
60019;BME280;45870;42.528;26.740;2023-03-31T15:22:13;99085.22;;;20.74;33.74
60019;BME280;45870;42.528;26.740;2023-03-31T15:24:39;99082.19;;;21.15;33.40
60019;BME280;45870;42.528;26.740;2023-03-31T15:27:34;99082.78;;;21.52;32.93
60019;BME280;45870;42.528;26.740;2023-03-31T15:30:05;99084.41;;;20.74;33.58
60019;BME280;45870;42.528;26.740;2023-03-31T15:32:37;99083.59;;;20.42;33.83
60019;BME280;45870;42.528;26.740;2023-03-31T15:35:04;99088.41;;;19.79;34.98
60019;BME280;45870;42.528;26.740;2023-03-31T15:37:39;99080.50;;;22.57;30.83
60019;BME280;45870;42.528;26.740;2023-03-31T15:40:17;99082.47;;;22.48;30.36
60019;BME280;45870;42.528;26.740;2023-03-31T15:42:45;99079.41;;;22.96;29.79
60019;BME280;45870;42.528;26.740;2023-03-31T15:48:00;99080.00;;;22.72;30.46
60019;BME280;45870;42.528;26.740;2023-03-31T15:50:27;99080.66;;;21.57;31.48
60019;BME280;45870;42.528;26.740;2023-03-31T15:52:54;99084.50;;;23.94;29.00
60019;BME280;45870;42.528;26.740;2023-03-31T15:55:27;99080.72;;;24.40;28.42